sensor_id;sensor_type;location;lat;lon;timestamp;P1;durP1;ratioP1;P2;durP2;ratioP2
22614;SDS011;11474;50.790;0.298;2023-07-13T00:01:50;33.08;;;5.88;;
22614;SDS011;11474;50.790;0.298;2023-07-13T00:04:18;27.25;;;5.43;;
22614;SDS011;11474;50.790;0.298;2023-07-13T00:06:45;31.17;;;5.23;;
22614;SDS011;11474;50.790;0.298;2023-07-13T00:09:12;25.63;;;4.80;;
22614;SDS011;11474;50.790;0.298;2023-07-13T00:11:38;27.55;;;5.07;;
22614;SDS011;11474;50.790;0.298;2023-07-13T00:14:05;24.70;;;5.47;;
22614;SDS011;11474;50.790;0.298;2023-07-13T00:16:31;23.92;;;4.35;;
22614;SDS011;11474;50.790;0.298;2023-07-13T00:18:57;20.80;;;4.57;;
22614;SDS011;11474;50.790;0.298;2023-07-13T00:21:25;26.85;;;5.57;;
22614;SDS011;11474;50.790;0.298;2023-07-13T00:23:51;25.73;;;4.82;;
22614;SDS011;11474;50.790;0.298;2023-07-13T00:26:17;22.05;;;4.55;;
22614;SDS011;11474;50.790;0.298;2023-07-13T00:28:43;19.42;;;4.43;;
22614;SDS011;11474;50.790;0.298;2023-07-13T00:31:10;21.73;;;4.32;;
22614;SDS011;11474;50.790;0.298;2023-07-13T00:33:36;22.90;;;4.32;;
22614;SDS011;11474;50.790;0.298;2023-07-13T00:36:03;25.15;;;4.50;;
22614;SDS011;11474;50.790;0.298;2023-07-13T00:38:29;22.35;;;4.47;;
22614;SDS011;11474;50.790;0.298;2023-07-13T00:40:55;24.08;;;4.85;;
22614;SDS011;11474;50.790;0.298;2023-07-13T00:43:22;21.00;;;4.63;;
22614;SDS011;11474;50.790;0.298;2023-07-13T00:48:25;19.23;;;4.35;;
22614;SDS011;11474;50.790;0.298;2023-07-13T00:50:54;16.48;;;3.83;;
22614;SDS011;11474;50.790;0.298;2023-07-13T00:53:21;16.50;;;3.93;;
22614;SDS011;11474;50.790;0.298;2023-07-13T00:55:48;30.02;;;4.93;;
22614;SDS011;11474;50.790;0.298;2023-07-13T00:58:15;21.80;;;4.47;;
22614;SDS011;11474;50.790;0.298;2023-07-13T01:00:42;20.75;;;4.10;;
22614;SDS011;11474;50.790;0.298;2023-07-13T01:03:08;21.70;;;4.03;;
22614;SDS011;11474;50.790;0.298;2023-07-13T01:05:49;20.08;;;3.92;;
22614;SDS011;11474;50.790;0.298;2023-07-13T01:08:16;22.45;;;4.65;;
22614;SDS011;11474;50.790;0.298;2023-07-13T01:10:55;21.88;;;4.43;;
22614;SDS011;11474;50.790;0.298;2023-07-13T01:13:21;22.10;;;4.20;;
22614;SDS011;11474;50.790;0.298;2023-07-13T01:15:49;23.27;;;4.80;;
22614;SDS011;11474;50.790;0.298;2023-07-13T01:18:20;20.88;;;4.10;;
22614;SDS011;11474;50.790;0.298;2023-07-13T01:23:22;21.52;;;4.25;;
22614;SDS011;11474;50.790;0.298;2023-07-13T01:25:49;19.15;;;4.55;;
22614;SDS011;11474;50.790;0.298;2023-07-13T01:28:16;25.88;;;4.82;;
22614;SDS011;11474;50.790;0.298;2023-07-13T01:30:43;18.38;;;3.90;;
22614;SDS011;11474;50.790;0.298;2023-07-13T01:33:11;23.92;;;4.47;;
22614;SDS011;11474;50.790;0.298;2023-07-13T01:35:37;21.42;;;3.85;;
22614;SDS011;11474;50.790;0.298;2023-07-13T01:38:04;15.77;;;3.40;;
22614;SDS011;11474;50.790;0.298;2023-07-13T01:40:30;18.13;;;3.67;;
22614;SDS011;11474;50.790;0.298;2023-07-13T01:42:57;18.83;;;3.72;;
22614;SDS011;11474;50.790;0.298;2023-07-13T01:45:23;15.80;;;4.05;;
22614;SDS011;11474;50.790;0.298;2023-07-13T01:47:50;14.95;;;3.45;;
22614;SDS011;11474;50.790;0.298;2023-07-13T01:50:16;12.07;;;3.45;;
22614;SDS011;11474;50.790;0.298;2023-07-13T01:52:42;15.63;;;3.50;;
22614;SDS011;11474;50.790;0.298;2023-07-13T01:55:08;15.07;;;3.88;;
22614;SDS011;11474;50.790;0.298;2023-07-13T01:57:34;11.93;;;3.10;;
22614;SDS011;11474;50.790;0.298;2023-07-13T02:00:03;12.65;;;3.40;;
22614;SDS011;11474;50.790;0.298;2023-07-13T02:02:30;14.32;;;3.30;;
22614;SDS011;11474;50.790;0.298;2023-07-13T02:04:56;16.63;;;3.78;;
22614;SDS011;11474;50.790;0.298;2023-07-13T02:07:22;13.75;;;3.38;;
22614;SDS011;11474;50.790;0.298;2023-07-13T02:09:48;14.33;;;3.43;;
22614;SDS011;11474;50.790;0.298;2023-07-13T02:12:14;17.30;;;4.38;;
22614;SDS011;11474;50.790;0.298;2023-07-13T02:14:40;14.77;;;3.60;;
22614;SDS011;11474;50.790;0.298;2023-07-13T02:17:07;15.38;;;3.28;;
22614;SDS011;11474;50.790;0.298;2023-07-13T02:19:33;15.40;;;3.10;;
22614;SDS011;11474;50.790;0.298;2023-07-13T02:21:59;17.88;;;3.78;;
22614;SDS011;11474;50.790;0.298;2023-07-13T02:24:34;16.00;;;3.47;;
22614;SDS011;11474;50.790;0.298;2023-07-13T02:27:00;14.43;;;3.53;;
22614;SDS011;11474;50.790;0.298;2023-07-13T02:29:27;11.00;;;2.95;;
22614;SDS011;11474;50.790;0.298;2023-07-13T02:31:53;12.67;;;3.07;;
22614;SDS011;11474;50.790;0.298;2023-07-13T02:34:19;13.32;;;3.10;;
22614;SDS011;11474;50.790;0.298;2023-07-13T02:36:45;17.83;;;3.42;;
22614;SDS011;11474;50.790;0.298;2023-07-13T02:39:11;15.40;;;4.00;;
22614;SDS011;11474;50.790;0.298;2023-07-13T02:41:38;13.90;;;3.25;;
22614;SDS011;11474;50.790;0.298;2023-07-13T02:44:04;12.73;;;2.90;;
22614;SDS011;11474;50.790;0.298;2023-07-13T02:46:31;10.55;;;3.03;;
22614;SDS011;11474;50.790;0.298;2023-07-13T02:48:57;9.95;;;3.20;;
22614;SDS011;11474;50.790;0.298;2023-07-13T02:51:23;12.00;;;3.30;;
22614;SDS011;11474;50.790;0.298;2023-07-13T02:53:49;14.20;;;3.45;;
22614;SDS011;11474;50.790;0.298;2023-07-13T02:56:15;15.43;;;3.55;;
22614;SDS011;11474;50.790;0.298;2023-07-13T02:58:41;13.23;;;3.35;;
22614;SDS011;11474;50.790;0.298;2023-07-13T03:01:08;13.95;;;3.95;;
22614;SDS011;11474;50.790;0.298;2023-07-13T03:03:35;16.92;;;3.70;;
22614;SDS011;11474;50.790;0.298;2023-07-13T03:06:02;13.65;;;3.45;;
22614;SDS011;11474;50.790;0.298;2023-07-13T03:08:28;12.15;;;3.20;;
22614;SDS011;11474;50.790;0.298;2023-07-13T03:11:01;14.70;;;3.45;;
22614;SDS011;11474;50.790;0.298;2023-07-13T03:13:27;14.45;;;3.70;;
22614;SDS011;11474;50.790;0.298;2023-07-13T03:15:54;8.57;;;2.67;;
22614;SDS011;11474;50.790;0.298;2023-07-13T03:18:20;10.80;;;2.92;;
22614;SDS011;11474;50.790;0.298;2023-07-13T03:20:46;9.40;;;3.08;;
22614;SDS011;11474;50.790;0.298;2023-07-13T03:23:12;8.93;;;2.95;;
22614;SDS011;11474;50.790;0.298;2023-07-13T03:25:38;12.32;;;3.13;;
22614;SDS011;11474;50.790;0.298;2023-07-13T03:28:04;9.73;;;3.08;;
22614;SDS011;11474;50.790;0.298;2023-07-13T03:30:30;12.20;;;2.92;;
22614;SDS011;11474;50.790;0.298;2023-07-13T03:32:57;13.35;;;3.15;;
22614;SDS011;11474;50.790;0.298;2023-07-13T03:35:23;12.35;;;3.20;;
22614;SDS011;11474;50.790;0.298;2023-07-13T03:37:49;12.18;;;2.97;;
22614;SDS011;11474;50.790;0.298;2023-07-13T03:40:16;13.85;;;2.85;;
22614;SDS011;11474;50.790;0.298;2023-07-13T03:42:42;14.02;;;3.35;;
22614;SDS011;11474;50.790;0.298;2023-07-13T03:45:08;13.20;;;3.03;;
22614;SDS011;11474;50.790;0.298;2023-07-13T03:47:34;12.52;;;3.13;;
22614;SDS011;11474;50.790;0.298;2023-07-13T03:50:01;13.03;;;3.37;;
22614;SDS011;11474;50.790;0.298;2023-07-13T03:52:27;9.40;;;2.90;;
22614;SDS011;11474;50.790;0.298;2023-07-13T03:54:53;12.80;;;3.15;;
22614;SDS011;11474;50.790;0.298;2023-07-13T03:57:20;12.20;;;3.05;;
22614;SDS011;11474;50.790;0.298;2023-07-13T03:59:46;10.95;;;3.22;;
22614;SDS011;11474;50.790;0.298;2023-07-13T04:02:12;10.45;;;3.00;;
22614;SDS011;11474;50.790;0.298;2023-07-13T04:04:38;11.05;;;2.95;;
22614;SDS011;11474;50.790;0.298;2023-07-13T04:07:06;20.25;;;3.63;;
22614;SDS011;11474;50.790;0.298;2023-07-13T04:09:33;13.20;;;3.22;;
22614;SDS011;11474;50.790;0.298;2023-07-13T04:11:59;13.07;;;3.57;;
22614;SDS011;11474;50.790;0.298;2023-07-13T04:14:25;12.80;;;3.30;;
22614;SDS011;11474;50.790;0.298;2023-07-13T04:16:52;14.27;;;3.03;;
22614;SDS011;11474;50.790;0.298;2023-07-13T04:19:19;11.02;;;2.95;;
22614;SDS011;11474;50.790;0.298;2023-07-13T04:21:46;9.25;;;2.97;;
22614;SDS011;11474;50.790;0.298;2023-07-13T04:24:12;10.27;;;3.22;;
22614;SDS011;11474;50.790;0.298;2023-07-13T04:26:38;13.93;;;3.55;;
22614;SDS011;11474;50.790;0.298;2023-07-13T04:29:05;12.20;;;2.97;;
22614;SDS011;11474;50.790;0.298;2023-07-13T04:31:31;13.18;;;3.15;;
22614;SDS011;11474;50.790;0.298;2023-07-13T04:33:57;11.68;;;3.35;;
22614;SDS011;11474;50.790;0.298;2023-07-13T04:36:24;7.80;;;2.80;;
22614;SDS011;11474;50.790;0.298;2023-07-13T04:38:52;9.60;;;3.08;;
22614;SDS011;11474;50.790;0.298;2023-07-13T04:41:19;9.73;;;3.00;;
22614;SDS011;11474;50.790;0.298;2023-07-13T04:43:45;13.48;;;3.35;;
22614;SDS011;11474;50.790;0.298;2023-07-13T04:46:12;13.20;;;3.25;;
22614;SDS011;11474;50.790;0.298;2023-07-13T04:48:38;11.95;;;2.85;;
22614;SDS011;11474;50.790;0.298;2023-07-13T04:51:04;8.65;;;3.45;;
22614;SDS011;11474;50.790;0.298;2023-07-13T04:53:31;11.52;;;3.10;;
22614;SDS011;11474;50.790;0.298;2023-07-13T04:55:59;10.27;;;3.20;;
22614;SDS011;11474;50.790;0.298;2023-07-13T04:58:25;10.38;;;3.00;;
22614;SDS011;11474;50.790;0.298;2023-07-13T05:00:52;14.57;;;3.53;;
22614;SDS011;11474;50.790;0.298;2023-07-13T05:03:18;13.10;;;3.42;;
22614;SDS011;11474;50.790;0.298;2023-07-13T05:05:54;11.45;;;3.22;;
22614;SDS011;11474;50.790;0.298;2023-07-13T05:08:20;12.85;;;3.15;;
22614;SDS011;11474;50.790;0.298;2023-07-13T05:10:46;11.17;;;3.10;;
22614;SDS011;11474;50.790;0.298;2023-07-13T05:13:12;11.52;;;2.90;;
22614;SDS011;11474;50.790;0.298;2023-07-13T05:15:39;12.18;;;2.97;;
22614;SDS011;11474;50.790;0.298;2023-07-13T05:18:05;9.17;;;2.77;;
22614;SDS011;11474;50.790;0.298;2023-07-13T05:20:31;9.90;;;3.17;;
22614;SDS011;11474;50.790;0.298;2023-07-13T05:22:57;11.85;;;2.97;;
22614;SDS011;11474;50.790;0.298;2023-07-13T05:25:23;12.68;;;2.85;;
22614;SDS011;11474;50.790;0.298;2023-07-13T05:27:49;8.55;;;2.65;;
22614;SDS011;11474;50.790;0.298;2023-07-13T05:30:15;7.18;;;2.40;;
22614;SDS011;11474;50.790;0.298;2023-07-13T05:32:41;8.68;;;2.60;;
22614;SDS011;11474;50.790;0.298;2023-07-13T05:35:08;11.63;;;2.90;;
22614;SDS011;11474;50.790;0.298;2023-07-13T05:37:34;11.67;;;2.70;;
22614;SDS011;11474;50.790;0.298;2023-07-13T05:40:00;9.18;;;2.95;;
22614;SDS011;11474;50.790;0.298;2023-07-13T05:42:26;13.75;;;2.90;;
22614;SDS011;11474;50.790;0.298;2023-07-13T05:44:52;10.40;;;3.05;;
22614;SDS011;11474;50.790;0.298;2023-07-13T05:47:19;13.90;;;3.00;;
22614;SDS011;11474;50.790;0.298;2023-07-13T05:49:45;11.32;;;2.80;;
22614;SDS011;11474;50.790;0.298;2023-07-13T05:52:11;11.00;;;3.00;;
22614;SDS011;11474;50.790;0.298;2023-07-13T05:54:37;11.07;;;2.80;;
22614;SDS011;11474;50.790;0.298;2023-07-13T05:57:03;11.73;;;2.90;;
22614;SDS011;11474;50.790;0.298;2023-07-13T05:59:29;11.75;;;2.83;;
22614;SDS011;11474;50.790;0.298;2023-07-13T06:01:55;13.57;;;3.10;;
22614;SDS011;11474;50.790;0.298;2023-07-13T06:04:21;12.93;;;3.08;;
22614;SDS011;11474;50.790;0.298;2023-07-13T06:06:47;8.82;;;2.67;;
22614;SDS011;11474;50.790;0.298;2023-07-13T06:09:14;15.87;;;3.27;;
22614;SDS011;11474;50.790;0.298;2023-07-13T06:11:40;12.48;;;2.92;;
22614;SDS011;11474;50.790;0.298;2023-07-13T06:14:06;12.00;;;3.00;;
22614;SDS011;11474;50.790;0.298;2023-07-13T06:16:32;10.43;;;2.90;;
22614;SDS011;11474;50.790;0.298;2023-07-13T06:18:58;12.23;;;3.00;;
22614;SDS011;11474;50.790;0.298;2023-07-13T06:21:24;8.13;;;2.70;;
22614;SDS011;11474;50.790;0.298;2023-07-13T06:23:51;10.10;;;2.80;;
22614;SDS011;11474;50.790;0.298;2023-07-13T06:26:17;9.60;;;2.70;;
22614;SDS011;11474;50.790;0.298;2023-07-13T06:28:44;10.70;;;3.40;;
22614;SDS011;11474;50.790;0.298;2023-07-13T06:31:10;11.23;;;3.08;;
22614;SDS011;11474;50.790;0.298;2023-07-13T06:33:37;13.93;;;3.20;;
22614;SDS011;11474;50.790;0.298;2023-07-13T06:36:04;15.75;;;3.38;;
22614;SDS011;11474;50.790;0.298;2023-07-13T06:38:30;17.83;;;3.40;;
22614;SDS011;11474;50.790;0.298;2023-07-13T06:40:57;16.25;;;3.20;;
22614;SDS011;11474;50.790;0.298;2023-07-13T06:43:23;16.65;;;3.53;;
22614;SDS011;11474;50.790;0.298;2023-07-13T06:45:54;16.45;;;3.83;;
22614;SDS011;11474;50.790;0.298;2023-07-13T06:48:20;17.02;;;3.85;;
22614;SDS011;11474;50.790;0.298;2023-07-13T06:50:47;18.93;;;3.67;;
22614;SDS011;11474;50.790;0.298;2023-07-13T06:53:14;13.27;;;2.90;;
22614;SDS011;11474;50.790;0.298;2023-07-13T06:55:43;15.77;;;3.40;;
22614;SDS011;11474;50.790;0.298;2023-07-13T06:58:10;10.73;;;2.70;;
22614;SDS011;11474;50.790;0.298;2023-07-13T07:00:36;11.00;;;2.90;;
22614;SDS011;11474;50.790;0.298;2023-07-13T07:03:02;14.37;;;3.23;;
22614;SDS011;11474;50.790;0.298;2023-07-13T07:05:28;12.15;;;2.92;;
22614;SDS011;11474;50.790;0.298;2023-07-13T07:07:55;14.73;;;3.38;;
22614;SDS011;11474;50.790;0.298;2023-07-13T07:10:21;13.55;;;3.25;;
22614;SDS011;11474;50.790;0.298;2023-07-13T07:12:47;10.98;;;3.05;;
22614;SDS011;11474;50.790;0.298;2023-07-13T07:15:13;14.02;;;2.83;;
22614;SDS011;11474;50.790;0.298;2023-07-13T07:17:40;13.13;;;2.90;;
22614;SDS011;11474;50.790;0.298;2023-07-13T07:20:06;13.45;;;2.78;;
22614;SDS011;11474;50.790;0.298;2023-07-13T07:22:32;9.83;;;2.60;;
22614;SDS011;11474;50.790;0.298;2023-07-13T07:24:59;8.35;;;2.35;;
22614;SDS011;11474;50.790;0.298;2023-07-13T07:27:25;8.50;;;2.20;;
22614;SDS011;11474;50.790;0.298;2023-07-13T07:29:51;9.02;;;2.30;;
22614;SDS011;11474;50.790;0.298;2023-07-13T07:32:18;9.57;;;2.50;;
22614;SDS011;11474;50.790;0.298;2023-07-13T07:34:44;12.57;;;3.45;;
22614;SDS011;11474;50.790;0.298;2023-07-13T07:37:11;10.07;;;2.38;;
22614;SDS011;11474;50.790;0.298;2023-07-13T07:39:37;10.80;;;3.08;;
22614;SDS011;11474;50.790;0.298;2023-07-13T07:42:03;16.98;;;3.53;;
22614;SDS011;11474;50.790;0.298;2023-07-13T07:44:30;10.07;;;2.67;;
22614;SDS011;11474;50.790;0.298;2023-07-13T07:46:57;14.02;;;3.45;;
22614;SDS011;11474;50.790;0.298;2023-07-13T07:49:23;11.55;;;3.08;;
22614;SDS011;11474;50.790;0.298;2023-07-13T07:51:49;14.40;;;3.45;;
22614;SDS011;11474;50.790;0.298;2023-07-13T07:54:15;15.57;;;3.30;;
22614;SDS011;11474;50.790;0.298;2023-07-13T07:56:41;14.55;;;3.58;;
22614;SDS011;11474;50.790;0.298;2023-07-13T07:59:08;12.00;;;3.05;;
22614;SDS011;11474;50.790;0.298;2023-07-13T08:01:34;14.00;;;3.08;;
22614;SDS011;11474;50.790;0.298;2023-07-13T08:04:00;16.75;;;3.65;;
22614;SDS011;11474;50.790;0.298;2023-07-13T08:06:27;14.13;;;2.97;;
22614;SDS011;11474;50.790;0.298;2023-07-13T08:08:53;14.63;;;3.40;;
22614;SDS011;11474;50.790;0.298;2023-07-13T08:11:20;13.73;;;3.45;;
22614;SDS011;11474;50.790;0.298;2023-07-13T08:13:46;15.43;;;3.17;;
22614;SDS011;11474;50.790;0.298;2023-07-13T08:16:12;17.08;;;3.65;;
22614;SDS011;11474;50.790;0.298;2023-07-13T08:18:38;12.88;;;3.10;;
22614;SDS011;11474;50.790;0.298;2023-07-13T08:21:05;13.40;;;2.93;;
22614;SDS011;11474;50.790;0.298;2023-07-13T08:23:31;19.23;;;3.28;;
22614;SDS011;11474;50.790;0.298;2023-07-13T08:25:57;17.17;;;3.50;;
22614;SDS011;11474;50.790;0.298;2023-07-13T08:28:26;19.83;;;3.70;;
22614;SDS011;11474;50.790;0.298;2023-07-13T08:30:52;18.75;;;4.40;;
22614;SDS011;11474;50.790;0.298;2023-07-13T08:33:18;23.25;;;4.20;;
22614;SDS011;11474;50.790;0.298;2023-07-13T08:35:45;16.13;;;3.55;;
22614;SDS011;11474;50.790;0.298;2023-07-13T08:38:12;19.15;;;3.83;;
22614;SDS011;11474;50.790;0.298;2023-07-13T08:40:38;20.00;;;4.30;;
22614;SDS011;11474;50.790;0.298;2023-07-13T08:43:07;22.73;;;4.30;;
22614;SDS011;11474;50.790;0.298;2023-07-13T08:45:38;17.92;;;3.95;;
22614;SDS011;11474;50.790;0.298;2023-07-13T08:48:12;15.05;;;3.67;;
22614;SDS011;11474;50.790;0.298;2023-07-13T08:50:43;21.08;;;4.05;;
22614;SDS011;11474;50.790;0.298;2023-07-13T08:53:10;16.77;;;3.90;;
22614;SDS011;11474;50.790;0.298;2023-07-13T08:55:38;19.27;;;3.95;;
22614;SDS011;11474;50.790;0.298;2023-07-13T09:00:42;18.42;;;3.78;;
22614;SDS011;11474;50.790;0.298;2023-07-13T09:03:16;16.48;;;4.05;;
22614;SDS011;11474;50.790;0.298;2023-07-13T09:05:45;17.33;;;3.73;;
22614;SDS011;11474;50.790;0.298;2023-07-13T09:08:32;13.60;;;3.95;;
22614;SDS011;11474;50.790;0.298;2023-07-13T09:13:40;14.90;;;3.40;;
22614;SDS011;11474;50.790;0.298;2023-07-13T09:16:09;15.97;;;3.47;;
22614;SDS011;11474;50.790;0.298;2023-07-13T09:18:41;16.60;;;3.63;;
22614;SDS011;11474;50.790;0.298;2023-07-13T09:21:15;13.82;;;3.83;;
22614;SDS011;11474;50.790;0.298;2023-07-13T09:23:42;14.48;;;3.22;;
22614;SDS011;11474;50.790;0.298;2023-07-13T09:28:37;11.13;;;3.22;;
22614;SDS011;11474;50.790;0.298;2023-07-13T09:31:23;15.38;;;3.72;;
22614;SDS011;11474;50.790;0.298;2023-07-13T09:33:50;16.30;;;3.70;;
22614;SDS011;11474;50.790;0.298;2023-07-13T09:36:27;16.33;;;3.30;;
22614;SDS011;11474;50.790;0.298;2023-07-13T09:38:59;17.03;;;3.57;;
22614;SDS011;11474;50.790;0.298;2023-07-13T09:44:10;16.80;;;3.58;;
22614;SDS011;11474;50.790;0.298;2023-07-13T09:46:37;13.73;;;3.20;;
22614;SDS011;11474;50.790;0.298;2023-07-13T09:49:03;14.07;;;3.30;;
22614;SDS011;11474;50.790;0.298;2023-07-13T09:51:29;10.95;;;3.10;;
22614;SDS011;11474;50.790;0.298;2023-07-13T09:53:56;12.07;;;3.05;;
22614;SDS011;11474;50.790;0.298;2023-07-13T09:56:31;12.80;;;3.17;;
22614;SDS011;11474;50.790;0.298;2023-07-13T09:58:58;12.90;;;3.13;;
22614;SDS011;11474;50.790;0.298;2023-07-13T10:01:31;15.43;;;3.20;;
22614;SDS011;11474;50.790;0.298;2023-07-13T10:03:58;13.98;;;2.55;;
22614;SDS011;11474;50.790;0.298;2023-07-13T10:06:24;12.10;;;2.80;;
22614;SDS011;11474;50.790;0.298;2023-07-13T10:08:55;15.07;;;3.20;;
22614;SDS011;11474;50.790;0.298;2023-07-13T10:11:22;11.40;;;2.70;;
22614;SDS011;11474;50.790;0.298;2023-07-13T10:13:57;13.45;;;2.80;;
22614;SDS011;11474;50.790;0.298;2023-07-13T10:16:25;14.45;;;3.15;;
22614;SDS011;11474;50.790;0.298;2023-07-13T10:18:56;11.07;;;2.60;;
22614;SDS011;11474;50.790;0.298;2023-07-13T10:21:26;9.90;;;2.27;;
22614;SDS011;11474;50.790;0.298;2023-07-13T10:23:55;12.53;;;2.60;;
22614;SDS011;11474;50.790;0.298;2023-07-13T10:26:26;11.27;;;2.30;;
22614;SDS011;11474;50.790;0.298;2023-07-13T10:28:54;14.63;;;2.70;;
22614;SDS011;11474;50.790;0.298;2023-07-13T10:31:22;14.48;;;2.60;;
22614;SDS011;11474;50.790;0.298;2023-07-13T10:33:49;10.20;;;2.35;;
22614;SDS011;11474;50.790;0.298;2023-07-13T10:36:29;14.70;;;2.72;;
22614;SDS011;11474;50.790;0.298;2023-07-13T10:38:57;12.03;;;2.80;;
22614;SDS011;11474;50.790;0.298;2023-07-13T10:41:24;9.93;;;2.45;;
22614;SDS011;11474;50.790;0.298;2023-07-13T10:43:52;12.00;;;2.67;;
22614;SDS011;11474;50.790;0.298;2023-07-13T10:46:20;16.13;;;3.20;;
22614;SDS011;11474;50.790;0.298;2023-07-13T10:48:49;13.83;;;2.57;;
22614;SDS011;11474;50.790;0.298;2023-07-13T10:51:17;18.38;;;3.00;;
22614;SDS011;11474;50.790;0.298;2023-07-13T10:53:46;13.23;;;3.03;;
22614;SDS011;11474;50.790;0.298;2023-07-13T10:56:46;16.00;;;3.47;;
22614;SDS011;11474;50.790;0.298;2023-07-13T10:59:09;13.35;;;2.38;;
22614;SDS011;11474;50.790;0.298;2023-07-13T11:01:40;14.18;;;2.90;;
22614;SDS011;11474;50.790;0.298;2023-07-13T11:04:12;14.80;;;3.00;;
22614;SDS011;11474;50.790;0.298;2023-07-13T11:06:40;10.10;;;2.27;;
22614;SDS011;11474;50.790;0.298;2023-07-13T11:11:44;11.80;;;2.42;;
22614;SDS011;11474;50.790;0.298;2023-07-13T11:16:46;10.83;;;2.30;;
22614;SDS011;11474;50.790;0.298;2023-07-13T11:24:28;12.20;;;2.42;;
22614;SDS011;11474;50.790;0.298;2023-07-13T11:26:56;14.48;;;2.40;;
22614;SDS011;11474;50.790;0.298;2023-07-13T11:31:58;12.88;;;2.50;;
22614;SDS011;11474;50.790;0.298;2023-07-13T11:34:33;9.77;;;2.40;;
22614;SDS011;11474;50.790;0.298;2023-07-13T11:37:00;9.25;;;2.30;;
22614;SDS011;11474;50.790;0.298;2023-07-13T11:41:59;15.25;;;3.00;;
22614;SDS011;11474;50.790;0.298;2023-07-13T11:44:27;12.32;;;2.45;;
22614;SDS011;11474;50.790;0.298;2023-07-13T11:46:55;10.52;;;2.33;;
22614;SDS011;11474;50.790;0.298;2023-07-13T11:49:23;13.18;;;2.47;;
22614;SDS011;11474;50.790;0.298;2023-07-13T11:51:49;12.48;;;2.45;;
22614;SDS011;11474;50.790;0.298;2023-07-13T11:56:55;11.63;;;2.35;;
22614;SDS011;11474;50.790;0.298;2023-07-13T11:59:25;11.82;;;2.53;;
22614;SDS011;11474;50.790;0.298;2023-07-13T12:01:52;13.10;;;2.75;;
22614;SDS011;11474;50.790;0.298;2023-07-13T12:04:23;8.70;;;2.15;;
22614;SDS011;11474;50.790;0.298;2023-07-13T12:06:54;13.30;;;2.53;;
22614;SDS011;11474;50.790;0.298;2023-07-13T12:09:20;11.35;;;3.05;;
22614;SDS011;11474;50.790;0.298;2023-07-13T12:11:50;15.75;;;2.83;;
22614;SDS011;11474;50.790;0.298;2023-07-13T12:14:17;10.77;;;3.15;;
22614;SDS011;11474;50.790;0.298;2023-07-13T12:16:45;11.05;;;2.50;;
22614;SDS011;11474;50.790;0.298;2023-07-13T12:19:21;14.05;;;3.17;;
22614;SDS011;11474;50.790;0.298;2023-07-13T12:21:48;11.25;;;2.65;;
22614;SDS011;11474;50.790;0.298;2023-07-13T12:24:17;11.90;;;3.53;;
22614;SDS011;11474;50.790;0.298;2023-07-13T12:26:44;11.77;;;3.08;;
22614;SDS011;11474;50.790;0.298;2023-07-13T12:29:13;9.30;;;2.72;;
22614;SDS011;11474;50.790;0.298;2023-07-13T12:31:42;12.82;;;2.75;;
22614;SDS011;11474;50.790;0.298;2023-07-13T12:34:13;11.73;;;2.60;;
22614;SDS011;11474;50.790;0.298;2023-07-13T12:36:47;13.60;;;3.40;;
22614;SDS011;11474;50.790;0.298;2023-07-13T12:41:40;12.87;;;2.87;;
22614;SDS011;11474;50.790;0.298;2023-07-13T12:44:10;13.50;;;2.80;;
22614;SDS011;11474;50.790;0.298;2023-07-13T12:46:37;10.95;;;3.03;;
22614;SDS011;11474;50.790;0.298;2023-07-13T12:49:05;17.83;;;2.53;;
22614;SDS011;11474;50.790;0.298;2023-07-13T12:51:32;9.98;;;2.58;;
22614;SDS011;11474;50.790;0.298;2023-07-13T12:54:17;13.95;;;2.92;;
22614;SDS011;11474;50.790;0.298;2023-07-13T12:56:44;13.52;;;2.70;;
22614;SDS011;11474;50.790;0.298;2023-07-13T12:59:15;12.82;;;2.63;;
22614;SDS011;11474;50.790;0.298;2023-07-13T13:01:42;11.27;;;2.50;;
22614;SDS011;11474;50.790;0.298;2023-07-13T13:04:08;12.23;;;2.83;;
22614;SDS011;11474;50.790;0.298;2023-07-13T13:06:36;12.67;;;2.70;;
22614;SDS011;11474;50.790;0.298;2023-07-13T13:09:02;11.25;;;2.70;;
22614;SDS011;11474;50.790;0.298;2023-07-13T13:11:29;11.10;;;2.90;;
22614;SDS011;11474;50.790;0.298;2023-07-13T13:13:55;14.48;;;3.30;;
22614;SDS011;11474;50.790;0.298;2023-07-13T13:19:25;14.82;;;3.28;;
22614;SDS011;11474;50.790;0.298;2023-07-13T13:21:52;15.57;;;3.35;;
22614;SDS011;11474;50.790;0.298;2023-07-13T13:24:20;20.52;;;3.70;;
22614;SDS011;11474;50.790;0.298;2023-07-13T13:26:46;11.68;;;3.08;;
22614;SDS011;11474;50.790;0.298;2023-07-13T13:29:14;14.77;;;3.53;;
22614;SDS011;11474;50.790;0.298;2023-07-13T13:31:41;12.00;;;3.33;;
22614;SDS011;11474;50.790;0.298;2023-07-13T13:34:11;10.45;;;3.03;;
22614;SDS011;11474;50.790;0.298;2023-07-13T13:36:37;13.93;;;3.10;;
22614;SDS011;11474;50.790;0.298;2023-07-13T13:39:05;16.60;;;3.47;;
22614;SDS011;11474;50.790;0.298;2023-07-13T13:41:31;15.35;;;3.08;;
22614;SDS011;11474;50.790;0.298;2023-07-13T13:43:57;15.18;;;3.10;;
22614;SDS011;11474;50.790;0.298;2023-07-13T13:46:24;14.93;;;3.22;;
22614;SDS011;11474;50.790;0.298;2023-07-13T13:48:50;13.73;;;3.17;;
22614;SDS011;11474;50.790;0.298;2023-07-13T13:51:17;11.55;;;3.10;;
22614;SDS011;11474;50.790;0.298;2023-07-13T13:53:44;10.98;;;3.05;;
22614;SDS011;11474;50.790;0.298;2023-07-13T13:56:11;10.30;;;2.75;;
22614;SDS011;11474;50.790;0.298;2023-07-13T13:58:38;13.05;;;3.10;;
22614;SDS011;11474;50.790;0.298;2023-07-13T14:01:04;9.32;;;2.72;;
22614;SDS011;11474;50.790;0.298;2023-07-13T14:03:33;12.68;;;2.97;;
22614;SDS011;11474;50.790;0.298;2023-07-13T14:06:00;8.20;;;2.60;;
22614;SDS011;11474;50.790;0.298;2023-07-13T14:08:26;9.30;;;2.70;;
22614;SDS011;11474;50.790;0.298;2023-07-13T14:10:53;7.60;;;2.72;;
22614;SDS011;11474;50.790;0.298;2023-07-13T14:13:34;8.82;;;2.70;;
22614;SDS011;11474;50.790;0.298;2023-07-13T14:16:02;6.60;;;2.40;;
22614;SDS011;11474;50.790;0.298;2023-07-13T14:18:28;7.63;;;2.47;;
22614;SDS011;11474;50.790;0.298;2023-07-13T14:20:54;9.70;;;2.60;;
22614;SDS011;11474;50.790;0.298;2023-07-13T14:23:20;6.43;;;2.35;;
22614;SDS011;11474;50.790;0.298;2023-07-13T14:25:46;12.40;;;2.40;;
22614;SDS011;11474;50.790;0.298;2023-07-13T14:28:24;7.53;;;2.25;;
22614;SDS011;11474;50.790;0.298;2023-07-13T14:30:50;8.60;;;2.30;;
22614;SDS011;11474;50.790;0.298;2023-07-13T14:33:17;7.45;;;2.08;;
22614;SDS011;11474;50.790;0.298;2023-07-13T14:35:43;10.60;;;2.50;;
22614;SDS011;11474;50.790;0.298;2023-07-13T14:38:16;10.43;;;2.50;;
22614;SDS011;11474;50.790;0.298;2023-07-13T14:40:43;10.93;;;2.83;;
22614;SDS011;11474;50.790;0.298;2023-07-13T14:43:10;11.18;;;2.85;;
22614;SDS011;11474;50.790;0.298;2023-07-13T14:45:38;11.32;;;3.10;;
22614;SDS011;11474;50.790;0.298;2023-07-13T14:48:09;10.05;;;2.50;;
22614;SDS011;11474;50.790;0.298;2023-07-13T14:50:38;9.43;;;2.80;;
22614;SDS011;11474;50.790;0.298;2023-07-13T14:53:05;9.87;;;2.73;;
22614;SDS011;11474;50.790;0.298;2023-07-13T14:55:34;14.60;;;3.47;;
22614;SDS011;11474;50.790;0.298;2023-07-13T14:58:00;15.07;;;3.22;;
22614;SDS011;11474;50.790;0.298;2023-07-13T15:00:27;14.73;;;3.00;;
22614;SDS011;11474;50.790;0.298;2023-07-13T15:02:55;13.20;;;3.00;;
22614;SDS011;11474;50.790;0.298;2023-07-13T15:05:27;14.50;;;3.10;;
22614;SDS011;11474;50.790;0.298;2023-07-13T15:07:56;12.63;;;3.15;;
22614;SDS011;11474;50.790;0.298;2023-07-13T15:10:24;10.68;;;3.03;;
22614;SDS011;11474;50.790;0.298;2023-07-13T15:12:57;11.93;;;3.25;;
22614;SDS011;11474;50.790;0.298;2023-07-13T15:15:23;11.35;;;3.47;;
22614;SDS011;11474;50.790;0.298;2023-07-13T15:17:50;9.30;;;2.95;;